createdAt,value
2018-02-20T00:01:09.430Z,92.66
2018-02-20T00:02:19.449Z,93.42
2018-02-20T00:03:28.922Z,93.04
2018-02-20T00:04:38.132Z,92.94
2018-02-20T00:05:47.690Z,93.42
2018-02-20T00:06:57.734Z,93.23
2018-02-20T00:08:07.476Z,93.89
2018-02-20T00:09:16.989Z,93.8
2018-02-20T00:10:26.729Z,93.61
2018-02-20T00:11:36.733Z,93.61
2018-02-20T00:12:46.686Z,93.61
2018-02-20T00:13:56.695Z,93.99
2018-02-20T00:15:06.427Z,93.7
2018-02-20T00:16:16.236Z,93.99
2018-02-20T00:17:25.976Z,93.8
2018-02-20T00:18:35.760Z,93.7
2018-02-20T00:19:45.785Z,93.89
2018-02-20T00:20:55.258Z,93.99
2018-02-20T00:22:05.265Z,93.89
2018-02-20T00:23:15.280Z,94.18
2018-02-20T00:24:25.289Z,94.27
2018-02-20T00:25:35.059Z,94.74
2018-02-20T00:26:44.310Z,94.37
2018-02-20T00:27:53.864Z,94.74
2018-02-20T00:29:03.587Z,94.74
2018-02-20T00:30:13.638Z,94.93
2018-02-20T00:31:23.401Z,95.5
2018-02-20T00:32:32.880Z,95.78
2018-02-20T00:33:42.616Z,95.4
2018-02-20T00:34:52.090Z,95.21
2018-02-20T00:36:01.996Z,95.5
2018-02-20T00:37:11.760Z,95.5
2018-02-20T00:38:21.237Z,95.5
2018-02-20T00:39:30.703Z,95.12
2018-02-20T00:40:40.466Z,95.59
2018-02-20T00:41:50.476Z,96.07
2018-02-20T00:43:00.211Z,95.69
2018-02-20T00:44:09.967Z,96.16
2018-02-20T00:45:19.721Z,95.88
2018-02-20T00:46:29.197Z,95.4
2018-02-20T00:47:38.692Z,95.5
2018-02-20T00:48:48.445Z,95.59
2018-02-20T00:49:57.910Z,95.59
2018-02-20T00:51:07.113Z,96.07
2018-02-20T00:52:16.880Z,95.59
2018-02-20T00:53:26.800Z,95.88
2018-02-20T00:54:36.674Z,96.16
2018-02-20T00:55:46.691Z,96.83
2018-02-20T00:56:56.493Z,97.11
2018-02-20T00:58:06.458Z,96.92
2018-02-20T00:59:16.464Z,96.92
2018-02-20T01:00:25.951Z,97.11
2018-02-20T01:01:35.312Z,96.92
2018-02-20T01:02:44.630Z,97.2
2018-02-20T01:03:54.090Z,97.2
2018-02-20T01:05:03.825Z,97.2
2018-02-20T01:06:13.342Z,97.2
2018-02-20T01:07:23.620Z,96.83
2018-02-20T01:08:33.621Z,97.72
2018-02-20T01:09:43.089Z,97.53
2018-02-20T01:10:52.830Z,97.72
2018-02-20T01:12:02.574Z,97.72
2018-02-20T01:13:12.308Z,97.91
2018-02-20T01:14:22.076Z,97.82
2018-02-20T01:15:31.541Z,97.91
2018-02-20T01:16:41.014Z,97.91
2018-02-20T01:17:50.478Z,97.82
2018-02-20T01:19:00.222Z,97.44
2018-02-20T01:20:10.317Z,97.91
2018-02-20T01:21:19.781Z,97.91
2018-02-20T01:22:29.511Z,97.63
2018-02-20T01:23:39.505Z,97.91
2018-02-20T01:24:49.497Z,97.91
2018-02-20T01:25:59.488Z,97.72
2018-02-20T01:27:09.253Z,97.91
2018-02-20T01:28:19.049Z,98.58
2018-02-20T01:29:28.508Z,98.39
2018-02-20T01:30:37.986Z,98.58
2018-02-20T01:31:47.764Z,99.05
2018-02-20T01:32:57.493Z,99.05
2018-02-20T01:34:07.225Z,99.15
2018-02-20T01:35:17.217Z,99.05
2018-02-20T01:36:26.415Z,99.24
2018-02-20T01:37:36.215Z,99.15
2018-02-20T01:38:45.945Z,99.15
2018-02-20T01:39:55.705Z,98.77
2018-02-20T01:41:05.476Z,98.96
2018-02-20T01:42:15.205Z,99.33
2018-02-20T01:43:24.665Z,99.24
2018-02-20T01:44:34.669Z,99.43
2018-02-20T01:45:43.591Z,99.24
2018-02-20T01:46:53.584Z,99.24
2018-02-20T01:48:02.771Z,99.8
2018-02-20T01:49:12.767Z,99.9
2018-02-20T01:50:22.765Z,99.52
2018-02-20T01:51:32.781Z,99.33
2018-02-20T01:52:42.240Z,99.71
2018-02-20T01:53:52.038Z,99.15
2018-02-20T01:55:01.767Z,99.43
2018-02-20T01:56:11.758Z,99.99
2018-02-20T01:57:21.488Z,99.9
2018-02-20T01:58:31.226Z,99.99
2018-02-20T01:59:40.418Z,99.99
2018-02-20T02:00:49.876Z,99.99
2018-02-20T02:01:59.599Z,99.99
2018-02-20T02:03:09.388Z,99.99
2018-02-20T02:04:18.595Z,99.99
2018-02-20T02:05:28.049Z,99.99
2018-02-20T02:06:37.770Z,99.99
2018-02-20T02:07:47.227Z,99.99
2018-02-20T02:08:56.689Z,99.99
2018-02-20T02:10:06.687Z,99.99
2018-02-20T02:11:16.679Z,99.99
2018-02-20T02:12:26.145Z,99.99
2018-02-20T02:13:35.609Z,99.99
2018-02-20T02:14:45.612Z,99.99
2018-02-20T02:15:54.808Z,99.99
2018-02-20T02:17:04.277Z,99.99
2018-02-20T02:18:14.005Z,99.99
2018-02-20T02:19:23.803Z,99.99
2018-02-20T02:20:33.263Z,99.99
2018-02-20T02:21:42.996Z,99.99
2018-02-20T02:22:51.936Z,99.99
2018-02-20T02:24:01.683Z,99.99
2018-02-20T02:25:11.420Z,99.99
2018-02-20T02:26:21.421Z,99.99
2018-02-20T02:27:30.616Z,99.99
2018-02-20T02:28:40.617Z,99.99
2018-02-20T02:29:49.814Z,99.99
2018-02-20T02:30:59.284Z,99.99
2018-02-20T02:32:08.220Z,99.99
2018-02-20T02:33:18.245Z,99.99
2018-02-20T02:34:28.252Z,99.99
2018-02-20T02:35:37.991Z,99.99
2018-02-20T02:37:00.229Z,99.99
2018-02-20T02:38:09.964Z,99.99
2018-02-20T02:39:19.972Z,99.99
2018-02-20T02:40:29.436Z,99.99
2018-02-20T02:41:38.636Z,99.99
2018-02-20T02:42:48.371Z,99.99
2018-02-20T02:43:57.851Z,99.99
2018-02-20T02:45:07.602Z,99.99
2018-02-20T02:46:17.086Z,99.99
2018-02-20T02:47:26.567Z,99.99
2018-02-20T02:48:36.046Z,99.99
2018-02-20T02:49:45.799Z,99.99
2018-02-20T02:50:55.542Z,99.99
2018-02-20T02:52:04.746Z,99.99
2018-02-20T02:53:14.230Z,99.99
2018-02-20T02:54:24.002Z,99.99
2018-02-20T02:55:33.754Z,99.99
2018-02-20T02:56:43.232Z,99.99
2018-02-20T02:57:52.959Z,99.99
2018-02-20T02:59:02.716Z,99.99
2018-02-20T03:00:12.450Z,99.99
2018-02-20T03:01:22.182Z,99.99
2018-02-20T03:02:31.390Z,99.99
2018-02-20T03:03:41.404Z,99.99
2018-02-20T03:04:51.136Z,99.99
2018-02-20T03:06:01.163Z,99.99
2018-02-20T03:07:10.924Z,99.99
2018-02-20T03:08:20.696Z,99.99
2018-02-20T03:09:30.430Z,99.99
2018-02-20T03:10:40.491Z,99.99
2018-02-20T03:11:50.489Z,99.99
2018-02-20T03:12:59.966Z,99.99
2018-02-20T03:14:09.964Z,99.99
2018-02-20T03:15:19.966Z,99.99
2018-02-20T03:16:29.963Z,99.99
2018-02-20T03:17:39.702Z,99.99
2018-02-20T03:18:49.163Z,99.99
2018-02-20T03:19:58.358Z,99.99
2018-02-20T03:21:07.815Z,99.99
2018-02-20T03:22:17.828Z,99.99
2018-02-20T03:23:27.554Z,99.99
2018-02-20T03:24:37.297Z,99.99
2018-02-20T03:25:47.309Z,99.99
2018-02-20T03:26:57.037Z,99.99
2018-02-20T03:28:07.031Z,99.99
2018-02-20T03:29:16.770Z,99.99
2018-02-20T03:30:26.251Z,99.99
2018-02-20T03:31:36.276Z,99.99
2018-02-20T03:32:45.753Z,99.99
2018-02-20T03:33:54.956Z,99.99
2018-02-20T03:35:04.705Z,99.99
2018-02-20T03:36:14.453Z,99.99
2018-02-20T03:37:23.923Z,99.99
2018-02-20T03:38:33.927Z,99.99
2018-02-20T03:39:43.118Z,99.99
2018-02-20T03:40:53.130Z,99.99
2018-02-20T03:42:02.606Z,99.99
2018-02-20T03:43:12.069Z,99.99
2018-02-20T03:44:21.790Z,99.99
2018-02-20T03:45:31.248Z,99.99
2018-02-20T03:46:41.253Z,99.99
2018-02-20T03:47:51.255Z,99.99
2018-02-20T03:49:00.993Z,99.99
2018-02-20T03:50:10.480Z,99.99
2018-02-20T03:51:20.210Z,99.99
2018-02-20T03:52:29.402Z,99.99
2018-02-20T03:53:38.331Z,99.99
2018-02-20T03:54:47.824Z,99.99
2018-02-20T03:55:57.300Z,99.99
2018-02-20T03:57:07.296Z,99.99
2018-02-20T03:58:17.026Z,99.99
2018-02-20T03:59:26.758Z,99.99
2018-02-20T04:00:36.511Z,99.99
2018-02-20T04:01:46.241Z,99.99
2018-02-20T04:02:55.697Z,99.99
2018-02-20T04:04:05.448Z,99.99
2018-02-20T04:05:14.927Z,99.99
2018-02-20T04:06:24.675Z,99.99
2018-02-20T04:07:34.152Z,99.99
2018-02-20T04:08:43.625Z,99.99
2018-02-20T04:09:53.365Z,99.99
2018-02-20T04:11:03.110Z,99.99
2018-02-20T04:12:12.582Z,99.99
2018-02-20T04:13:21.798Z,99.99
2018-02-20T04:14:31.533Z,99.99
2018-02-20T04:15:41.534Z,99.99
2018-02-20T04:16:50.468Z,99.99
2018-02-20T04:18:00.204Z,99.99
2018-02-20T04:19:09.667Z,99.99
2018-02-20T04:20:19.668Z,99.99
2018-02-20T04:21:29.398Z,99.99
2018-02-20T04:22:39.137Z,99.99
2018-02-20T04:23:48.600Z,99.99
2018-02-20T04:24:58.346Z,99.99
2018-02-20T04:26:08.079Z,99.99
2018-02-20T04:27:18.073Z,99.99
2018-02-20T04:28:27.793Z,99.99
2018-02-20T04:29:37.790Z,99.99
2018-02-20T04:30:47.518Z,99.99
2018-02-20T04:31:57.247Z,99.99
2018-02-20T04:33:07.103Z,99.99
2018-02-20T04:34:16.831Z,99.99
2018-02-20T04:35:26.286Z,99.99
2018-02-20T04:36:35.742Z,99.99
2018-02-20T04:37:45.461Z,99.99
2018-02-20T04:38:54.919Z,99.99
2018-02-20T04:40:04.105Z,99.99
2018-02-20T04:41:13.828Z,99.99
2018-02-20T04:42:23.821Z,99.99
2018-02-20T04:43:33.312Z,99.99
2018-02-20T04:44:42.770Z,99.99
2018-02-20T04:45:52.235Z,99.99
2018-02-20T04:47:01.427Z,99.99
2018-02-20T04:48:10.349Z,99.99
2018-02-20T04:49:20.076Z,99.99
2018-02-20T04:50:30.077Z,99.99
2018-02-20T04:51:39.804Z,99.99
2018-02-20T04:52:49.262Z,99.99
2018-02-20T04:53:58.723Z,99.99
2018-02-20T04:55:08.187Z,99.99
2018-02-20T04:56:18.199Z,99.99
2018-02-20T04:57:27.389Z,99.99
2018-02-20T04:58:36.849Z,99.99
2018-02-20T04:59:46.315Z,99.99
2018-02-20T05:00:55.504Z,99.99
2018-02-20T05:02:05.492Z,99.99
2018-02-20T05:03:14.954Z,99.99
2018-02-20T05:04:24.939Z,99.99
2018-02-20T05:05:34.393Z,99.99
2018-02-20T05:06:44.394Z,99.99
2018-02-20T05:07:53.851Z,99.99
2018-02-20T05:09:03.577Z,99.99
2018-02-20T05:10:13.306Z,99.99
2018-02-20T05:11:22.751Z,99.99
2018-02-20T05:12:32.266Z,99.99
2018-02-20T05:13:42.264Z,99.99
2018-02-20T05:14:51.450Z,99.99
2018-02-20T05:16:01.443Z,99.99
2018-02-20T05:17:10.634Z,99.99
2018-02-20T05:18:19.822Z,99.99
2018-02-20T05:19:29.285Z,99.99
2018-02-20T05:20:38.476Z,99.99
2018-02-20T05:21:48.023Z,99.99
2018-02-20T05:22:58.012Z,99.99
2018-02-20T05:24:07.475Z,99.99
2018-02-20T05:25:17.475Z,99.99
2018-02-20T05:26:26.673Z,99.99
2018-02-20T05:27:36.668Z,99.99
2018-02-20T05:28:46.150Z,99.99
2018-02-20T05:29:55.883Z,99.99
2018-02-20T05:31:05.078Z,99.99
2018-02-20T05:32:14.806Z,99.99
2018-02-20T05:33:24.546Z,99.99
2018-02-20T05:34:34.282Z,99.99
2018-02-20T05:35:44.277Z,99.99
2018-02-20T05:36:53.994Z,99.99
2018-02-20T05:38:03.192Z,99.99
2018-02-20T05:39:13.182Z,99.99
2018-02-20T05:40:23.166Z,99.99
2018-02-20T05:41:33.167Z,99.99
2018-02-20T05:42:43.150Z,99.99
2018-02-20T05:43:52.338Z,99.99
2018-02-20T05:45:02.068Z,99.99
2018-02-20T05:46:11.259Z,99.99
2018-02-20T05:47:21.301Z,99.99
2018-02-20T05:48:31.030Z,99.99
2018-02-20T05:49:41.028Z,99.99
2018-02-20T05:50:50.501Z,99.99
2018-02-20T05:52:00.497Z,99.99
2018-02-20T05:53:10.224Z,99.99
2018-02-20T05:54:19.950Z,99.99
2018-02-20T05:55:29.143Z,99.99
2018-02-20T05:56:38.426Z,99.99
2018-02-20T05:57:48.393Z,99.99
2018-02-20T05:58:58.078Z,99.99
2018-02-20T06:00:07.563Z,99.99
2018-02-20T06:01:17.025Z,99.99
2018-02-20T06:02:26.504Z,99.99
2018-02-20T06:03:36.510Z,99.99
2018-02-20T06:04:46.253Z,99.99
2018-02-20T06:05:55.446Z,99.99
2018-02-20T06:07:04.900Z,99.99
2018-02-20T06:08:14.124Z,99.99
2018-02-20T06:09:24.112Z,99.99
2018-02-20T06:10:33.844Z,99.99
2018-02-20T06:11:43.566Z,99.99
2018-02-20T06:12:53.562Z,99.99
2018-02-20T06:14:03.584Z,99.99
2018-02-20T06:15:13.538Z,99.99
2018-02-20T06:16:22.998Z,99.99
2018-02-20T06:17:32.462Z,99.99
2018-02-20T06:18:42.449Z,99.99
2018-02-20T06:19:52.491Z,99.99
2018-02-20T06:21:01.956Z,99.99
2018-02-20T06:22:11.997Z,99.99
2018-02-20T06:23:21.725Z,99.99
2018-02-20T06:24:31.180Z,99.99
2018-02-20T06:25:40.120Z,99.99
2018-02-20T06:26:49.576Z,99.99
2018-02-20T06:27:59.338Z,99.99
2018-02-20T06:29:08.530Z,99.99
2018-02-20T06:30:18.538Z,99.99
2018-02-20T06:31:28.527Z,99.99
2018-02-20T06:32:37.980Z,99.99
2018-02-20T06:33:47.978Z,99.99
2018-02-20T06:34:57.442Z,99.99
2018-02-20T06:36:06.944Z,99.99
2018-02-20T06:37:16.699Z,99.99
2018-02-20T06:38:26.422Z,99.99
2018-02-20T06:39:35.652Z,99.99
2018-02-20T06:40:45.645Z,99.99
2018-02-20T06:41:54.840Z,99.99
2018-02-20T06:43:04.850Z,99.99
2018-02-20T06:44:14.602Z,99.99
2018-02-20T06:45:24.127Z,99.99
2018-02-20T06:46:33.862Z,99.99
2018-02-20T06:47:43.050Z,99.99
2018-02-20T06:48:52.776Z,99.99
2018-02-20T06:50:02.501Z,99.99
2018-02-20T06:51:12.496Z,99.99
2018-02-20T06:52:22.495Z,99.99
2018-02-20T06:53:32.218Z,99.99
2018-02-20T06:54:41.757Z,99.99
2018-02-20T06:55:51.750Z,99.99
2018-02-20T06:57:01.198Z,99.99
2018-02-20T06:58:10.711Z,99.99
2018-02-20T06:59:20.434Z,99.99
2018-02-20T07:00:30.432Z,99.99
2018-02-20T07:01:39.619Z,99.99
2018-02-20T07:02:49.692Z,99.99
2018-02-20T07:03:59.518Z,99.99
2018-02-20T07:05:09.539Z,99.99
2018-02-20T07:06:18.993Z,99.99
2018-02-20T07:07:28.453Z,99.99
2018-02-20T07:08:37.920Z,99.99
2018-02-20T07:09:47.943Z,99.99
2018-02-20T07:10:57.399Z,99.99
2018-02-20T07:12:07.240Z,99.99
2018-02-20T07:13:16.982Z,99.99
2018-02-20T07:14:26.176Z,99.99
2018-02-20T07:15:35.685Z,99.99
2018-02-20T07:16:45.405Z,99.99
2018-02-20T07:17:55.469Z,99.99
2018-02-20T07:19:04.663Z,99.99
2018-02-20T07:20:14.395Z,99.99
2018-02-20T07:21:24.132Z,99.99
2018-02-20T07:22:34.130Z,99.99
2018-02-20T07:23:43.590Z,99.99
2018-02-20T07:24:53.319Z,99.99
2018-02-20T07:26:02.774Z,99.99
2018-02-20T07:27:12.507Z,99.99
2018-02-20T07:28:22.512Z,99.99
2018-02-20T07:29:32.544Z,99.99
2018-02-20T07:30:41.999Z,99.99
2018-02-20T07:31:51.721Z,99.99
2018-02-20T07:33:01.224Z,99.99
2018-02-20T07:34:10.946Z,99.99
2018-02-20T07:35:20.406Z,99.99
2018-02-20T07:36:30.128Z,99.99
2018-02-20T07:37:39.850Z,99.99
2018-02-20T07:38:49.043Z,99.99
2018-02-20T07:39:58.501Z,99.99
2018-02-20T07:41:07.688Z,99.99
2018-02-20T07:42:17.147Z,99.99
2018-02-20T07:43:26.893Z,99.99
2018-02-20T07:44:36.100Z,99.99
2018-02-20T07:45:45.819Z,99.99
2018-02-20T07:46:55.545Z,99.99
2018-02-20T07:48:05.279Z,99.99
2018-02-20T07:49:14.733Z,99.99
2018-02-20T07:50:24.731Z,99.99
2018-02-20T07:51:34.732Z,99.99
2018-02-20T07:52:44.459Z,99.99
2018-02-20T07:53:54.178Z,99.99
2018-02-20T07:55:03.906Z,99.99
2018-02-20T07:56:13.901Z,99.99
2018-02-20T07:57:23.631Z,99.99
2018-02-20T07:58:32.826Z,99.99
2018-02-20T07:59:42.552Z,99.99
2018-02-20T08:00:52.279Z,99.99
2018-02-20T08:02:01.471Z,99.99
2018-02-20T08:03:11.461Z,99.99
2018-02-20T08:04:21.464Z,99.99
2018-02-20T08:05:31.519Z,99.99
2018-02-20T08:06:41.247Z,99.99
2018-02-20T08:07:51.243Z,99.99
2018-02-20T08:09:00.976Z,99.99
2018-02-20T08:10:10.710Z,99.99
2018-02-20T08:11:20.443Z,99.99
2018-02-20T08:12:30.167Z,99.99
2018-02-20T08:13:39.892Z,99.99
2018-02-20T08:14:49.356Z,99.99
2018-02-20T08:15:59.360Z,99.99
2018-02-20T08:17:09.361Z,99.99
2018-02-20T08:18:19.356Z,99.99
2018-02-20T08:19:28.556Z,99.99
2018-02-20T08:20:38.566Z,99.99
2018-02-20T08:21:48.554Z,99.99
2018-02-20T08:22:58.557Z,99.99
2018-02-20T08:24:08.299Z,99.99
2018-02-20T08:25:18.328Z,99.99
2018-02-20T08:26:27.517Z,99.99
2018-02-20T08:27:37.505Z,99.99
2018-02-20T08:28:46.970Z,99.99
2018-02-20T08:29:56.701Z,99.99
2018-02-20T08:31:06.163Z,99.99
2018-02-20T08:32:15.355Z,99.99
2018-02-20T08:33:24.819Z,99.99
2018-02-20T08:34:34.552Z,99.99
2018-02-20T08:35:44.005Z,99.99
2018-02-20T08:36:53.730Z,99.99
2018-02-20T08:38:03.199Z,99.99
2018-02-20T08:39:12.651Z,99.99
2018-02-20T08:40:22.640Z,99.99
2018-02-20T08:41:32.638Z,99.99
2018-02-20T08:42:42.364Z,99.99
2018-02-20T08:43:52.364Z,99.99
2018-02-20T08:45:02.086Z,99.99
2018-02-20T08:46:11.278Z,99.99
2018-02-20T08:47:21.000Z,99.99
2018-02-20T08:48:30.458Z,99.99
2018-02-20T08:49:40.181Z,99.99
2018-02-20T08:50:49.634Z,99.99
2018-02-20T08:51:58.572Z,99.99
2018-02-20T08:53:07.777Z,99.99
2018-02-20T08:54:17.889Z,99.99
2018-02-20T08:55:27.622Z,99.99
2018-02-20T08:56:37.621Z,99.99
2018-02-20T08:57:47.357Z,99.99
2018-02-20T08:58:57.350Z,99.99
2018-02-20T09:00:07.128Z,99.99
2018-02-20T09:01:17.254Z,99.99
2018-02-20T09:02:26.544Z,99.99
2018-02-20T09:03:36.303Z,99.99
2018-02-20T09:04:45.512Z,99.99
2018-02-20T09:05:55.499Z,99.99
2018-02-20T09:07:05.234Z,99.66
2018-02-20T09:08:15.044Z,99.19
2018-02-20T09:09:25.067Z,99.38
2018-02-20T09:10:34.795Z,99.76
2018-02-20T09:11:44.268Z,99.76
2018-02-20T09:12:53.765Z,99.66
2018-02-20T09:14:03.277Z,99.57
2018-02-20T09:15:13.062Z,99.57
2018-02-20T09:16:22.845Z,99.19
2018-02-20T09:17:32.059Z,99.01
2018-02-20T09:18:41.876Z,98.72
2018-02-20T09:19:51.374Z,97.96
2018-02-20T09:21:00.834Z,98.06
2018-02-20T09:22:10.401Z,98.34
2018-02-20T09:23:20.190Z,97.68
2018-02-20T09:24:30.190Z,98.15
2018-02-20T09:25:39.933Z,98.06
2018-02-20T09:26:49.406Z,98.06
2018-02-20T09:27:59.176Z,97.68
2018-02-20T09:29:09.186Z,97.58
2018-02-20T09:30:19.261Z,97.39
2018-02-20T09:31:29.040Z,97.35
2018-02-20T09:32:38.503Z,96.59
2018-02-20T09:33:47.756Z,96.21
2018-02-20T09:34:57.489Z,96.5
2018-02-20T09:36:07.219Z,96.31
2018-02-20T09:37:16.676Z,96.12
2018-02-20T09:38:25.883Z,96.02
2018-02-20T09:39:35.375Z,96.31
2018-02-20T09:40:45.411Z,96.31
2018-02-20T09:41:54.611Z,96.02
2018-02-20T09:43:04.404Z,95.74
2018-02-20T09:44:13.918Z,95.36
2018-02-20T09:45:23.654Z,94.89
2018-02-20T09:46:33.408Z,94.79
2018-02-20T09:47:42.870Z,95.07
2018-02-20T09:48:52.638Z,94.98
2018-02-20T09:50:02.420Z,94.93
2018-02-20T09:51:11.879Z,94.93
2018-02-20T09:52:22.391Z,94.84
2018-02-20T09:53:31.592Z,94.46
2018-02-20T09:54:41.589Z,94.27
2018-02-20T09:55:51.322Z,93.89
2018-02-20T09:57:01.057Z,93.51
2018-02-20T09:58:10.790Z,92.85
2018-02-20T09:59:20.842Z,92.76
2018-02-20T10:00:30.320Z,93.51
2018-02-20T10:01:40.080Z,93.32
2018-02-20T10:02:49.584Z,93.04
2018-02-20T10:03:59.060Z,93.32
2018-02-20T10:05:09.051Z,92.28
2018-02-20T10:06:17.992Z,92.28
2018-02-20T10:07:27.991Z,91.9
2018-02-20T10:08:37.721Z,90.86
2018-02-20T10:09:47.181Z,89.86
2018-02-20T10:10:56.951Z,87.68
2018-02-20T10:12:06.430Z,87.49
2018-02-20T10:13:16.227Z,86.55
2018-02-20T10:14:26.058Z,86.55
2018-02-20T10:15:36.108Z,86.55
2018-02-20T10:16:45.374Z,87.02
2018-02-20T10:17:55.166Z,86.07
2018-02-20T10:19:04.912Z,86.64
2018-02-20T10:20:14.662Z,86.35
2018-02-20T10:21:24.425Z,86.35
2018-02-20T10:22:33.620Z,85.6
2018-02-20T10:23:43.357Z,84.84
2018-02-20T10:24:52.602Z,84.94
2018-02-20T10:26:02.398Z,84.65
2018-02-20T10:27:11.968Z,83.36
2018-02-20T10:28:22.077Z,82.23
2018-02-20T10:29:31.799Z,82.79
2018-02-20T10:30:41.866Z,82.23
2018-02-20T10:31:51.933Z,81.94
2018-02-20T10:33:01.617Z,82.42
2018-02-20T10:34:11.414Z,81.66
2018-02-20T10:35:20.873Z,81.85
2018-02-20T10:36:31.076Z,81.09
2018-02-20T10:37:41.444Z,79.66
2018-02-20T10:38:50.639Z,78.81
2018-02-20T10:39:59.570Z,79.1
2018-02-20T10:41:09.045Z,79
2018-02-20T10:42:19.069Z,79.38
2018-02-20T10:43:28.543Z,79.57
2018-02-20T10:44:38.289Z,79.47
2018-02-20T10:45:48.308Z,78.81
2018-02-20T10:46:57.782Z,78.43
2018-02-20T10:48:06.975Z,78
2018-02-20T10:49:16.700Z,77.52
2018-02-20T10:50:26.159Z,77.43
2018-02-20T10:51:35.617Z,77.43
2018-02-20T10:52:44.808Z,77.52
2018-02-20T10:53:54.536Z,78.09
2018-02-20T10:55:03.743Z,77.81
2018-02-20T10:56:13.226Z,77.71
2018-02-20T10:57:22.986Z,77.43
2018-02-20T10:58:32.719Z,77.52
2018-02-20T10:59:42.490Z,76.86
2018-02-20T11:00:52.525Z,76.67
2018-02-20T11:02:01.996Z,76.1
2018-02-20T11:03:11.783Z,76.48
2018-02-20T11:04:21.848Z,76.32
2018-02-20T11:05:31.576Z,76.61
2018-02-20T11:06:41.309Z,76.42
2018-02-20T11:07:50.509Z,74.9
2018-02-20T11:08:59.977Z,74.05
2018-02-20T11:10:09.440Z,74.33
2018-02-20T11:11:19.170Z,74.43
2018-02-20T11:12:28.367Z,75
2018-02-20T11:13:38.101Z,74.71
2018-02-20T11:14:47.826Z,74.15
2018-02-20T11:15:57.026Z,73.23
2018-02-20T11:17:07.017Z,73.71
2018-02-20T11:18:16.480Z,72.95
2018-02-20T11:19:26.208Z,73.33
2018-02-20T11:20:35.678Z,73.04
2018-02-20T11:21:45.134Z,73.14
2018-02-20T11:22:54.327Z,73.42
2018-02-20T11:24:04.057Z,73.33
2018-02-20T11:25:13.249Z,71.71
2018-02-20T11:26:22.987Z,71.43
2018-02-20T11:27:32.724Z,71.23
2018-02-20T11:28:42.724Z,71.33
2018-02-20T11:29:52.465Z,71.23
2018-02-20T11:31:01.928Z,70.29
2018-02-20T11:32:11.398Z,69.75
2018-02-20T11:33:21.530Z,69.56
2018-02-20T11:34:31.004Z,69.27
2018-02-20T11:35:40.470Z,68.33
2018-02-20T11:36:50.209Z,68.42
2018-02-20T11:37:59.671Z,68.04
2018-02-20T11:39:09.733Z,67.57
2018-02-20T11:40:19.522Z,67.47
2018-02-20T11:41:29.569Z,67.57
2018-02-20T11:42:39.630Z,67.47
2018-02-20T11:43:49.405Z,66.71
2018-02-20T11:44:59.249Z,67.32
2018-02-20T11:46:09.190Z,67.38
2018-02-20T11:47:18.837Z,66.84
2018-02-20T11:48:28.568Z,66.17
2018-02-20T11:49:38.032Z,65.99
2018-02-20T11:50:47.773Z,66.46
2018-02-20T11:51:57.559Z,65.89
2018-02-20T11:53:07.646Z,65.99
2018-02-20T11:54:17.655Z,65.8
2018-02-20T11:55:27.408Z,65.99
2018-02-20T11:56:36.605Z,64.08
2018-02-20T11:57:46.130Z,64.27
2018-02-20T11:58:55.610Z,64.69
2018-02-20T12:00:05.709Z,64.65
2018-02-20T12:01:15.175Z,64.21
2018-02-20T12:02:24.680Z,63.6
2018-02-20T12:03:33.898Z,64.02
2018-02-20T12:04:43.105Z,63.83
2018-02-20T12:05:52.847Z,63.54
2018-02-20T12:07:02.853Z,62.97
2018-02-20T12:08:12.432Z,63.54
2018-02-20T12:09:22.436Z,62.97
2018-02-20T12:10:31.632Z,63.17
2018-02-20T12:11:41.645Z,62.78
2018-02-20T12:12:51.395Z,62.69
2018-02-20T12:14:01.009Z,60.78
2018-02-20T12:15:10.607Z,60.12
2018-02-20T12:16:20.694Z,59.27
2018-02-20T12:17:30.196Z,58.72
2018-02-20T12:18:39.933Z,59.27
2018-02-20T12:19:49.664Z,59.2
2018-02-20T12:20:59.123Z,59.39
2018-02-20T12:22:08.860Z,59.86
2018-02-20T12:23:18.868Z,59.29
2018-02-20T12:24:28.602Z,59.48
2018-02-20T12:25:38.067Z,58.62
2018-02-20T12:26:48.080Z,59.01
2018-02-20T12:27:58.084Z,58.25
2018-02-20T12:29:07.818Z,58.15
2018-02-20T12:30:16.852Z,57.51
2018-02-20T12:31:26.598Z,57.32
2018-02-20T12:32:36.117Z,56.09
2018-02-20T12:33:45.589Z,55.61
2018-02-20T12:34:55.057Z,55.32
2018-02-20T12:36:05.069Z,55.42
2018-02-20T12:37:14.796Z,55.13
2018-02-20T12:38:24.789Z,55.9
2018-02-20T12:39:34.782Z,54.47
2018-02-20T12:40:44.515Z,54.18
2018-02-20T12:41:54.250Z,53.64
2018-02-20T12:43:03.712Z,53.64
2018-02-20T12:44:13.199Z,54.59
2018-02-20T12:45:22.473Z,55.44
2018-02-20T12:46:32.200Z,55.16
2018-02-20T12:47:41.657Z,53.44
2018-02-20T12:48:51.397Z,53.44
2018-02-20T12:50:01.450Z,52.71
2018-02-20T12:51:11.183Z,51.95
2018-02-20T12:52:20.736Z,52.14
2018-02-20T12:53:30.830Z,51.4
2018-02-20T12:54:40.615Z,51.59
2018-02-20T12:55:50.361Z,50.73
2018-02-20T12:56:59.559Z,49.21
2018-02-20T12:58:09.555Z,48.25
2018-02-20T12:59:19.350Z,48.63
2018-02-20T13:00:28.818Z,48.94
2018-02-20T13:01:38.024Z,47.89
2018-02-20T13:02:48.028Z,48.08
2018-02-20T13:03:57.782Z,47.89
2018-02-20T13:05:07.352Z,48.08
2018-02-20T13:06:16.804Z,46.18
2018-02-20T13:07:26.253Z,46.37
2018-02-20T13:08:36.008Z,46.47
2018-02-20T13:09:46.055Z,46.27
2018-02-20T13:10:56.389Z,46.66
2018-02-20T13:12:06.275Z,46.87
2018-02-20T13:13:15.482Z,45.72
2018-02-20T13:14:25.223Z,44.58
2018-02-20T13:15:35.017Z,43.53
2018-02-20T13:16:44.636Z,43.53
2018-02-20T13:17:54.135Z,43.15
2018-02-20T13:19:03.672Z,43.43
2018-02-20T13:20:13.138Z,43.62
2018-02-20T13:21:23.195Z,44.58
2018-02-20T13:22:32.969Z,44.38
2018-02-20T13:23:42.457Z,43.62
2018-02-20T13:24:52.188Z,43.51
2018-02-20T13:26:02.024Z,43.41
2018-02-20T13:27:11.840Z,43.79
2018-02-20T13:28:21.028Z,43.7
2018-02-20T13:29:30.762Z,43.6
2018-02-20T13:30:40.531Z,44.17
2018-02-20T13:31:50.263Z,43.89
2018-02-20T13:33:00.262Z,43.77
2018-02-20T13:34:09.996Z,45.01
2018-02-20T13:35:19.202Z,46.15
2018-02-20T13:36:28.402Z,46.82
2018-02-20T13:37:37.604Z,47.49
2018-02-20T13:38:47.070Z,48.07
2018-02-20T13:39:56.274Z,48.07
2018-02-20T13:41:05.801Z,48.07
2018-02-20T13:42:15.536Z,48.44
2018-02-20T13:43:24.934Z,48.16
2018-02-20T13:44:34.668Z,48.32
2018-02-20T13:45:44.155Z,49.02
2018-02-20T13:46:53.905Z,48.8
2018-02-20T13:48:03.921Z,48.44
2018-02-20T13:49:13.241Z,48.04
2018-02-20T13:50:22.911Z,48.23
2018-02-20T13:51:32.921Z,48.13
2018-02-20T13:52:42.388Z,48.32
2018-02-20T13:56:13.708Z,48.44
2018-02-20T13:57:23.720Z,49.28
2018-02-20T13:58:32.924Z,49.21
2018-02-20T13:59:42.734Z,48.99
2018-02-20T14:00:52.198Z,49.28
2018-02-20T14:02:01.940Z,49.08
2018-02-20T14:03:11.434Z,49.47
2018-02-20T14:04:21.228Z,49.37
2018-02-20T14:05:31.311Z,49.3
2018-02-20T14:06:41.312Z,49.02
2018-02-20T14:07:50.831Z,48.25
2018-02-20T14:09:00.634Z,47.87
2018-02-20T14:10:10.118Z,48.07
2018-02-20T14:11:19.950Z,48.16
2018-02-20T14:12:29.969Z,48.25
2018-02-20T14:13:39.980Z,48.52
2018-02-20T14:14:49.979Z,48.23
2018-02-20T14:15:59.707Z,48.52
2018-02-20T14:17:09.172Z,48.99
2018-02-20T14:18:18.909Z,49.08
2018-02-20T14:19:28.101Z,49.18
2018-02-20T14:20:38.108Z,49.18
2018-02-20T14:21:47.934Z,49.47
2018-02-20T14:22:57.133Z,48.8
2018-02-20T14:24:06.901Z,49.18
2018-02-20T14:25:16.100Z,49.37
2018-02-20T14:26:25.386Z,49.47
2018-02-20T14:27:34.135Z,49.47
2018-02-20T14:28:44.188Z,49.37
2018-02-20T14:29:53.658Z,49.06
2018-02-20T14:31:03.400Z,49.44
2018-02-20T14:32:12.603Z,49.37
2018-02-20T14:33:22.338Z,48.58
2018-02-20T14:34:32.157Z,48.39
2018-02-20T14:35:41.929Z,48.3
2018-02-20T14:36:51.528Z,48.68
2018-02-20T14:38:00.995Z,48.58
2018-02-20T14:39:10.463Z,49.06
2018-02-20T14:40:19.931Z,49.44
2018-02-20T14:41:29.435Z,49.42
2018-02-20T14:42:39.168Z,49.8
2018-02-20T14:43:48.934Z,50.09
2018-02-20T14:44:58.137Z,50.56
2018-02-20T14:46:07.879Z,50.18
2018-02-20T14:47:17.880Z,50.46
2018-02-20T14:48:27.350Z,50.66
2018-02-20T14:49:36.554Z,50.66
2018-02-20T14:50:46.287Z,51.51
2018-02-20T14:51:56.403Z,51.42
2018-02-20T14:53:06.145Z,51.3
2018-02-20T14:54:15.084Z,51.49
2018-02-20T14:55:24.549Z,51.58
2018-02-20T14:56:33.745Z,51.68
2018-02-20T14:57:43.207Z,51.87
2018-02-20T14:58:53.258Z,51.97
2018-02-20T15:00:03.049Z,51.97
2018-02-20T15:01:12.425Z,52.06
2018-02-20T15:02:21.395Z,52.15